Time;durP1;ratioP1;P1;durP2;ratioP2;P2;SDS_P1;SDS_P2;PMS_P1;PMS_P2;Temp;Humidity;BMP_temperature;BMP_pressure;BME280_temperature;BME280_humidity;BME280_pressure;Samples;Min_cycle;Max_cycle;Signal;HPM_P1;HPM_P2
2021/05/16 00:01:53;;;;;;;0.40;0.40;;;;;;;10.79;100.00;99090.72;5052524;28;20498;-54
2021/05/16 00:04:21;;;;;;;0.30;0.20;;;;;;;10.78;100.00;99088.16;5051719;28;20457;-54
2021/05/16 00:06:49;;;;;;;0.30;0.20;;;;;;;10.72;100.00;99081.34;5052004;28;20454;-54
2021/05/16 00:09:16;;;;;;;0.30;0.20;;;;;;;10.79;100.00;99085.41;5051981;28;20463;-54
2021/05/16 00:11:43;;;;;;;0.30;0.20;;;;;;;10.73;100.00;99082.22;5052166;28;21037;-54
2021/05/16 00:14:09;;;;;;;0.30;0.20;;;;;;;10.63;100.00;99074.66;5051939;28;20447;-54
2021/05/16 00:16:37;;;;;;;0.50;0.50;;;;;;;10.78;100.00;99083.69;5051939;28;20496;-54
2021/05/16 00:19:05;;;;;;;0.30;0.20;;;;;;;10.76;100.00;99074.06;5051994;28;20874;-53
2021/05/16 00:21:32;;;;;;;0.90;0.90;;;;;;;11.14;100.00;99077.50;5052024;28;20447;-54
2021/05/16 00:23:59;;;;;;;0.30;0.20;;;;;;;10.87;100.00;99074.41;5051655;28;20455;-54
2021/05/16 00:26:26;;;;;;;0.30;0.20;;;;;;;11.10;100.00;99071.47;5051968;28;20453;-54
2021/05/16 00:28:52;;;;;;;0.30;0.20;;;;;;;10.90;100.00;99064.47;5051551;28;21037;-54
2021/05/16 00:31:19;;;;;;;0.30;0.20;;;;;;;10.75;100.00;99073.22;5052037;28;20486;-54
2021/05/16 00:33:46;;;;;;;0.30;0.20;;;;;;;10.88;100.00;99074.34;5051794;28;20531;-54
2021/05/16 00:36:12;;;;;;;0.30;0.20;;;;;;;10.70;100.00;99066.41;5051756;28;20454;-54
2021/05/16 00:38:39;;;;;;;0.30;0.20;;;;;;;10.71;100.00;99068.13;5050415;28;20482;-54
2021/05/16 00:41:06;;;;;;;0.30;0.20;;;;;;;10.55;100.00;99068.00;5051979;28;20442;-54
2021/05/16 00:43:32;;;;;;;0.30;0.20;;;;;;;10.61;100.00;99060.59;5051676;28;20485;-54
2021/05/16 00:45:59;;;;;;;0.30;0.20;;;;;;;10.87;100.00;99067.31;5051714;28;20455;-54
2021/05/16 00:48:25;;;;;;;0.30;0.20;;;;;;;10.82;100.00;99065.78;5051186;28;20848;-54
2021/05/16 00:50:52;;;;;;;0.30;0.20;;;;;;;10.75;100.00;99070.56;5051399;28;20517;-54
2021/05/16 00:53:23;;;;;;;0.30;0.20;;;;;;;10.84;100.00;99072.78;5051380;28;20454;-54
2021/05/16 00:55:50;;;;;;;0.30;0.20;;;;;;;10.87;100.00;99069.09;5051822;28;20450;-54
2021/05/16 00:58:17;;;;;;;0.30;0.20;;;;;;;10.95;100.00;99075.75;5051339;28;20482;-54
2021/05/16 01:00:44;;;;;;;0.30;0.20;;;;;;;10.88;100.00;99069.03;5051367;28;20856;-54
2021/05/16 01:03:12;;;;;;;0.30;0.20;;;;;;;10.70;100.00;99067.28;5050368;28;20512;-54
2021/05/16 01:05:42;;;;;;;0.30;0.20;;;;;;;10.67;100.00;99068.25;5051266;28;20504;-53
2021/05/16 01:08:09;;;;;;;0.30;0.20;;;;;;;10.74;100.00;99066.19;5051486;28;20506;-54
2021/05/16 01:10:36;;;;;;;0.30;0.20;;;;;;;10.91;100.00;99073.31;5052347;28;20486;-54
2021/05/16 01:13:06;;;;;;;0.30;0.20;;;;;;;10.67;100.00;99064.75;5055081;28;20451;-54
2021/05/16 01:15:33;;;;;;;0.30;0.20;;;;;;;10.87;100.00;99066.44;5054117;28;20458;-54
2021/05/16 01:18:00;;;;;;;0.30;0.20;;;;;;;10.68;100.00;99074.44;5054788;28;20490;-54
2021/05/16 01:20:33;;;;;;;0.30;0.30;;;;;;;10.92;100.00;99065.25;5054748;28;20476;-54
2021/05/16 01:23:05;;;;;;;0.30;0.20;;;;;;;10.72;100.00;99069.84;5055079;28;20442;-54
2021/05/16 01:25:38;;;;;;;0.30;0.20;;;;;;;10.51;100.00;99075.25;5054787;28;20512;-54
2021/05/16 01:28:06;;;;;;;6.00;1.57;;;;;;;10.49;100.00;99069.16;5054957;28;20520;-54
2021/05/16 01:30:34;;;;;;;0.30;0.30;;;;;;;10.43;100.00;99069.47;5054454;28;20995;-54
2021/05/16 01:33:03;;;;;;;0.30;0.20;;;;;;;10.43;100.00;99071.25;5054863;28;20511;-54
2021/05/16 01:35:31;;;;;;;0.30;0.20;;;;;;;10.48;100.00;99077.22;5054482;28;21001;-54
2021/05/16 01:37:58;;;;;;;0.30;0.20;;;;;;;10.77;100.00;99079.31;5054502;28;20467;-54
2021/05/16 01:40:26;;;;;;;0.30;0.20;;;;;;;10.60;100.00;99071.31;5054728;28;20450;-53
2021/05/16 01:42:55;;;;;;;0.30;0.20;;;;;;;10.82;100.00;99071.09;5054454;28;20451;-54
2021/05/16 01:45:24;;;;;;;0.30;0.20;;;;;;;10.53;100.00;99081.34;5054506;28;20443;-54
2021/05/16 01:47:56;;;;;;;0.30;0.20;;;;;;;10.70;100.00;99077.03;5054248;28;20471;-54
2021/05/16 01:50:31;;;;;;;0.30;0.20;;;;;;;10.63;100.00;99076.47;5054122;28;20492;-54
2021/05/16 01:53:01;;;;;;;0.30;0.20;;;;;;;10.49;100.00;99074.47;5054389;28;20450;-54
2021/05/16 01:55:28;;;;;;;0.30;0.20;;;;;;;10.56;100.00;99077.72;5054310;28;20500;-53
2021/05/16 01:57:55;;;;;;;0.30;0.20;;;;;;;10.54;100.00;99076.91;5053983;28;20893;-54
2021/05/16 02:00:29;;;;;;;0.30;0.20;;;;;;;10.91;100.00;99070.66;5054208;28;20803;-54
2021/05/16 02:02:56;;;;;;;0.30;0.20;;;;;;;10.83;100.00;99073.72;5054236;28;20446;-54
2021/05/16 02:05:23;;;;;;;0.30;0.20;;;;;;;10.75;100.00;99070.56;5053904;28;20459;-54
2021/05/16 02:07:51;;;;;;;0.30;0.20;;;;;;;10.84;100.00;99069.25;5054248;28;20815;-54
2021/05/16 02:10:19;;;;;;;0.30;0.20;;;;;;;10.81;100.00;99062.28;5054147;28;20476;-54
2021/05/16 02:12:45;;;;;;;0.30;0.20;;;;;;;10.73;100.00;99069.78;5053870;28;20850;-54
2021/05/16 02:15:13;;;;;;;0.30;0.20;;;;;;;10.93;100.00;99079.41;5053709;28;20871;-54
2021/05/16 02:17:41;;;;;;;0.30;0.20;;;;;;;10.75;100.00;99072.34;5053760;28;20891;-54
2021/05/16 02:20:09;;;;;;;0.30;0.20;;;;;;;10.79;100.00;99079.22;5053766;28;20447;-54
2021/05/16 02:22:36;;;;;;;0.30;0.20;;;;;;;10.85;100.00;99073.63;5052590;28;20450;-54
2021/05/16 02:25:04;;;;;;;0.30;0.20;;;;;;;10.94;100.00;99073.16;5053796;28;20451;-54
2021/05/16 02:27:30;;;;;;;0.30;0.20;;;;;;;10.84;100.00;99064.81;5053333;28;20470;-54
2021/05/16 02:29:57;;;;;;;0.30;0.20;;;;;;;10.90;100.00;99068.94;5053504;28;21021;-54
2021/05/16 02:32:24;;;;;;;0.30;0.20;;;;;;;10.84;100.00;99062.16;5053414;28;20490;-54
2021/05/16 02:34:50;;;;;;;0.30;0.20;;;;;;;10.74;100.00;99066.19;5053543;28;20452;-54
2021/05/16 02:37:17;;;;;;;0.30;0.20;;;;;;;10.82;100.00;99068.44;5053156;28;20478;-54
2021/05/16 02:39:43;;;;;;;0.30;0.20;;;;;;;10.81;100.00;99061.41;5053413;28;20564;-54
2021/05/16 02:42:10;;;;;;;0.30;0.20;;;;;;;10.83;100.00;99060.41;5053720;28;20450;-54
2021/05/16 02:44:37;;;;;;;0.30;0.20;;;;;;;10.84;100.00;99067.47;5053184;28;20956;-54
2021/05/16 02:47:03;;;;;;;0.30;0.20;;;;;;;10.78;100.00;99064.22;5052166;28;20443;-54
2021/05/16 02:49:30;;;;;;;0.30;0.20;;;;;;;10.76;100.00;99061.66;5053052;28;20455;-54
2021/05/16 02:51:58;;;;;;;0.30;0.20;;;;;;;10.78;100.00;99064.22;5052672;28;20490;-54
2021/05/16 02:54:25;;;;;;;0.30;0.20;;;;;;;10.83;100.00;99067.53;5053097;28;20451;-54
2021/05/16 02:56:52;;;;;;;0.30;0.20;;;;;;;10.79;100.00;99063.28;5053084;28;20467;-54
2021/05/16 02:59:18;;;;;;;0.30;0.20;;;;;;;10.84;100.00;99063.94;5053621;28;20454;-53
2021/05/16 03:01:45;;;;;;;0.40;0.30;;;;;;;10.94;100.00;99060.72;5052994;28;20875;-53
2021/05/16 03:04:12;;;;;;;0.30;0.20;;;;;;;10.88;100.00;99055.72;5053190;28;20516;-53
2021/05/16 03:06:38;;;;;;;0.30;0.20;;;;;;;10.88;100.00;99060.19;5052296;28;20450;-53
2021/05/16 03:09:05;;;;;;;0.30;0.20;;;;;;;10.83;100.00;99056.91;5052928;28;20521;-52
2021/05/16 03:11:32;;;;;;;1.80;1.80;;;;;;;10.87;100.00;99058.47;5052756;28;20564;-53
2021/05/16 03:13:59;;;;;;;0.30;0.20;;;;;;;10.88;100.00;99052.22;5052677;28;20446;-52
2021/05/16 03:16:26;;;;;;;0.30;0.20;;;;;;;10.76;100.00;99055.47;5039228;28;20457;-53
2021/05/16 03:18:52;;;;;;;0.50;0.50;;;;;;;10.83;100.00;99057.75;5052513;28;20605;-53
2021/05/16 03:21:19;;;;;;;0.30;0.20;;;;;;;10.82;100.00;99055.16;5052535;28;20447;-52
2021/05/16 03:23:46;;;;;;;0.30;0.20;;;;;;;10.84;100.00;99055.97;5052846;28;20545;-53
2021/05/16 03:26:13;;;;;;;0.30;0.20;;;;;;;10.75;100.00;99059.94;5052846;28;20455;-53
2021/05/16 03:28:40;;;;;;;0.40;0.30;;;;;;;10.63;100.00;99057.88;5052412;28;20475;-53
2021/05/16 03:31:06;;;;;;;0.30;0.20;;;;;;;10.62;100.00;99057.00;5052410;28;20494;-53
2021/05/16 03:33:33;;;;;;;0.30;0.20;;;;;;;10.53;100.00;99057.44;5052405;28;20447;-52
2021/05/16 03:36:00;;;;;;;0.30;0.20;;;;;;;10.64;100.00;99055.13;5052358;28;20932;-53
2021/05/16 03:38:27;;;;;;;0.30;0.20;;;;;;;10.59;100.00;99051.84;5052133;28;20596;-52
2021/05/16 03:40:53;;;;;;;0.30;0.20;;;;;;;10.53;100.00;99057.44;5052054;28;20451;-52
2021/05/16 03:43:22;;;;;;;0.30;0.20;;;;;;;10.75;100.00;99053.75;5052176;28;20461;-53
2021/05/16 03:45:49;;;;;;;0.57;0.57;;;;;;;10.71;100.00;99057.50;5051082;28;20455;-52
2021/05/16 03:48:16;;;;;;;0.30;0.20;;;;;;;10.78;100.00;99057.13;5052074;28;20478;-52
2021/05/16 03:50:42;;;;;;;0.30;0.20;;;;;;;10.75;100.00;99051.94;5052310;28;20485;-53
2021/05/16 03:53:09;;;;;;;0.30;0.20;;;;;;;10.72;100.00;99057.44;5048070;28;20491;-53
2021/05/16 03:55:36;;;;;;;0.30;0.20;;;;;;;10.82;100.00;99053.34;5052228;28;20858;-52
2021/05/16 03:58:03;;;;;;;0.30;0.20;;;;;;;10.92;100.00;99061.75;5051705;28;20516;-52
2021/05/16 04:00:30;;;;;;;0.30;0.20;;;;;;;10.94;100.00;99055.41;5052269;28;20455;-53
2021/05/16 04:02:57;;;;;;;0.30;0.20;;;;;;;11.03;100.00;99063.88;5051784;28;20537;-52
2021/05/16 04:05:24;;;;;;;0.30;0.20;;;;;;;11.09;100.00;99060.91;5051772;28;20864;-53
2021/05/16 04:07:50;;;;;;;0.30;0.20;;;;;;;11.03;100.00;99058.56;5052023;28;20467;-53
2021/05/16 04:10:17;;;;;;;0.30;0.20;;;;;;;11.19;100.00;99056.84;5052029;28;20936;-53
2021/05/16 04:12:43;;;;;;;0.30;0.20;;;;;;;11.28;100.00;99059.03;5051923;28;20992;-53
2021/05/16 04:15:10;;;;;;;0.30;0.20;;;;;;;11.27;100.00;99052.84;5051763;28;20828;-53
2021/05/16 04:17:37;;;;;;;2.10;1.17;;;;;;;11.25;100.00;99056.53;5050797;28;20532;-53
2021/05/16 04:20:05;;;;;;;0.30;0.20;;;;;;;11.17;100.00;99054.25;5052169;28;21005;-53
2021/05/16 04:22:31;;;;;;;1.27;0.57;;;;;;;11.39;100.00;99055.84;5052114;28;20990;-52
2021/05/16 04:24:59;;;;;;;0.40;0.30;;;;;;;11.46;100.00;99049.22;5051983;28;20483;-52
2021/05/16 04:27:26;;;;;;;0.30;0.20;;;;;;;11.37;100.00;99055.88;5052824;28;20467;-53
2021/05/16 04:29:52;;;;;;;0.30;0.20;;;;;;;11.44;100.00;99059.09;5052456;28;20936;-53
2021/05/16 04:32:19;;;;;;;0.30;0.20;;;;;;;11.36;100.00;99058.63;5052394;28;20490;-52
2021/05/16 04:34:45;;;;;;;0.30;0.20;;;;;;;11.36;100.00;99059.50;5051919;28;20451;-52
2021/05/16 04:37:12;;;;;;;0.30;0.20;;;;;;;11.44;100.00;99051.97;5051846;28;20470;-53
2021/05/16 04:39:39;;;;;;;0.30;0.20;;;;;;;11.40;100.00;99063.72;5051725;28;20500;-53
2021/05/16 04:42:06;;;;;;;0.30;0.20;;;;;;;11.51;100.00;99061.38;5051371;28;20443;-52
2021/05/16 04:44:32;;;;;;;0.30;0.20;;;;;;;11.46;100.00;99060.75;5051356;28;20451;-53
2021/05/16 04:46:59;;;;;;;0.30;0.20;;;;;;;11.47;100.00;99056.28;5055087;28;20454;-52
2021/05/16 04:49:26;;;;;;;0.30;0.20;;;;;;;11.53;100.00;99055.97;5055700;28;20497;-53
2021/05/16 04:51:52;;;;;;;0.30;0.20;;;;;;;11.60;100.00;99059.16;5055142;28;20524;-53
2021/05/16 04:54:19;;;;;;;0.30;0.20;;;;;;;11.61;100.00;99052.88;5055099;28;21005;-53
2021/05/16 04:56:46;;;;;;;4.63;3.50;;;;;;;11.63;100.00;99059.84;5055275;28;20451;-53
2021/05/16 04:59:12;;;;;;;0.30;0.20;;;;;;;11.63;100.00;99057.19;5055007;28;20478;-53
2021/05/16 05:01:40;;;;;;;0.30;0.20;;;;;;;11.57;100.00;99050.41;5053901;28;20447;-52
2021/05/16 05:04:07;;;;;;;0.50;0.50;;;;;;;11.53;100.00;99048.00;5055535;28;20455;-52
2021/05/16 05:06:33;;;;;;;0.30;0.20;;;;;;;11.58;100.00;99054.78;5054969;28;20454;-52
2021/05/16 05:09:01;;;;;;;0.30;0.20;;;;;;;11.76;100.00;99060.06;5055267;28;20479;-52
2021/05/16 05:11:28;;;;;;;0.30;0.20;;;;;;;11.91;100.00;99051.28;5041576;28;20489;-52
2021/05/16 05:13:54;;;;;;;0.30;0.20;;;;;;;12.01;100.00;99054.31;5053690;28;20520;-52
2021/05/16 05:16:21;;;;;;;1.60;1.53;;;;;;;12.02;100.00;99048.03;5055140;28;20496;-52
2021/05/16 05:18:48;;;;;;;0.30;0.20;;;;;;;11.97;100.00;99050.97;5055049;28;20463;-52
2021/05/16 05:21:15;;;;;;;0.30;0.20;;;;;;;11.90;100.00;99046.03;5054695;28;20450;-52
2021/05/16 05:23:42;;;;;;;0.30;0.20;;;;;;;11.87;100.00;99049.75;5054908;28;20505;-52
2021/05/16 05:26:08;;;;;;;0.30;0.20;;;;;;;12.01;100.00;99052.50;5054636;28;20446;-52
2021/05/16 05:28:35;;;;;;;0.40;0.30;;;;;;;11.94;100.00;99053.81;5054888;28;20479;-52
2021/05/16 05:31:03;;;;;;;0.30;0.20;;;;;;;12.03;100.00;99049.75;5054998;28;20450;-52
2021/05/16 05:33:30;;;;;;;0.30;0.20;;;;;;;12.04;100.00;99054.16;5054467;28;20490;-52
2021/05/16 05:35:56;;;;;;;0.30;0.20;;;;;;;12.14;100.00;99050.91;5055038;28;20935;-52
2021/05/16 05:38:23;;;;;;;0.30;0.20;;;;;;;12.07;100.00;99046.88;5054659;28;20474;-53
2021/05/16 05:40:50;;;;;;;0.30;0.20;;;;;;;11.98;100.00;99044.69;5054292;28;20912;-52
2021/05/16 05:43:16;;;;;;;0.30;0.20;;;;;;;12.08;100.00;99047.72;5054596;28;20453;-52
2021/05/16 05:45:43;;;;;;;0.30;0.20;;;;;;;12.12;100.00;99047.47;5054641;28;20443;-52
2021/05/16 05:48:10;;;;;;;0.30;0.20;;;;;;;12.06;100.00;99049.59;5054196;28;20466;-52
2021/05/16 05:50:36;;;;;;;0.30;0.20;;;;;;;12.19;100.00;99045.31;5054339;28;20447;-52
2021/05/16 05:53:03;;;;;;;0.30;0.20;;;;;;;12.19;100.00;99044.44;5054042;28;20498;-52
2021/05/16 05:55:34;;;;;;;0.30;0.20;;;;;;;12.11;100.00;99044.91;5054224;28;20454;-52
2021/05/16 05:58:01;;;;;;;0.30;0.20;;;;;;;12.39;100.00;99042.41;5054063;28;20486;-52
2021/05/16 06:00:29;;;;;;;0.30;0.20;;;;;;;12.35;100.00;99042.69;5054363;28;20537;-52
2021/05/16 06:02:56;;;;;;;0.30;0.20;;;;;;;12.35;100.00;99046.22;5054369;28;20538;-52
2021/05/16 06:05:26;;;;;;;0.30;0.20;;;;;;;12.51;100.00;99038.19;5053005;28;20993;-52
2021/05/16 06:07:56;;;;;;;0.47;0.47;;;;;;;12.58;100.00;99052.88;5053588;28;21002;-52
2021/05/16 06:10:24;;;;;;;0.30;0.20;;;;;;;12.54;100.00;99048.69;5054000;28;20839;-52
2021/05/16 06:12:54;;;;;;;0.30;0.20;;;;;;;12.80;100.00;99047.19;5054016;28;20540;-52
2021/05/16 06:15:24;;;;;;;0.30;0.20;;;;;;;13.10;100.00;99049.88;5053765;28;20507;-52
2021/05/16 06:17:51;;;;;;;0.30;0.20;;;;;;;13.02;100.00;99052.16;5054026;28;20467;-53
2021/05/16 06:20:18;;;;;;;0.30;0.20;;;;;;;12.90;100.00;99050.22;5053510;28;20504;-53
2021/05/16 06:22:44;;;;;;;0.30;0.20;;;;;;;12.90;100.00;99052.88;5053558;28;20951;-52
2021/05/16 06:25:11;;;;;;;0.30;0.20;;;;;;;12.96;100.00;99056.03;5053912;28;20855;-53
2021/05/16 06:27:38;;;;;;;0.30;0.20;;;;;;;12.81;100.00;99056.91;5053578;28;20471;-52
2021/05/16 06:30:05;;;;;;;0.30;0.20;;;;;;;12.57;100.00;99050.31;5053641;28;20447;-52
2021/05/16 06:32:32;;;;;;;0.30;0.20;;;;;;;12.65;100.00;99051.59;5053184;28;20980;-52
2021/05/16 06:34:59;;;;;;;0.30;0.20;;;;;;;12.82;100.00;99055.09;5053370;28;20451;-52
2021/05/16 06:37:25;;;;;;;0.30;0.20;;;;;;;12.62;100.00;99053.59;5053432;28;20475;-52
2021/05/16 06:39:52;;;;;;;0.30;0.20;;;;;;;12.50;100.00;99062.28;5053333;28;20869;-53
2021/05/16 06:42:21;;;;;;;0.30;0.20;;;;;;;12.62;100.00;99057.13;5053437;28;20451;-53
2021/05/16 06:44:48;;;;;;;0.30;0.20;;;;;;;12.65;100.00;99056.09;5053443;28;20447;-53
2021/05/16 06:47:14;;;;;;;0.30;0.20;;;;;;;12.65;100.00;99054.28;5053365;28;20887;-53
2021/05/16 06:49:41;;;;;;;0.30;0.20;;;;;;;12.77;100.00;99049.19;5052956;28;20454;-53
2021/05/16 06:52:07;;;;;;;0.30;0.20;;;;;;;12.72;100.00;99060.09;5053039;28;20490;-53
2021/05/16 06:54:34;;;;;;;0.30;0.20;;;;;;;12.98;100.00;99054.13;5053133;28;20450;-53
2021/05/16 06:57:00;;;;;;;0.30;0.20;;;;;;;13.07;100.00;99059.88;5052835;28;20460;-54
2021/05/16 06:59:27;;;;;;;0.30;0.20;;;;;;;13.01;100.00;99053.09;5052836;28;20871;-53
2021/05/16 07:01:54;;;;;;;0.30;0.20;;;;;;;13.22;100.00;99051.88;5053096;28;20499;-53
2021/05/16 07:04:21;;;;;;;0.30;0.20;;;;;;;13.05;100.00;99054.66;5052995;28;20494;-53
2021/05/16 07:06:48;;;;;;;0.30;0.20;;;;;;;13.25;100.00;99057.00;5052653;28;20457;-53
2021/05/16 07:09:15;;;;;;;0.30;0.20;;;;;;;13.40;100.00;99049.03;5052595;28;20458;-53
2021/05/16 07:11:41;;;;;;;0.30;0.20;;;;;;;13.46;100.00;99052.22;5053048;28;20451;-53
2021/05/16 07:14:08;;;;;;;0.30;0.20;;;;;;;13.60;100.00;99052.25;5051676;28;20866;-54
2021/05/16 07:16:34;;;;;;;0.50;0.50;;;;;;;13.34;100.00;99047.63;5052708;28;20444;-54
2021/05/16 07:19:02;;;;;;;0.30;0.20;;;;;;;13.82;100.00;99046.41;5052289;28;20466;-54
2021/05/16 07:21:29;;;;;;;0.30;0.20;;;;;;;13.85;100.00;99042.72;5052884;28;20558;-54
2021/05/16 07:24:00;;;;;;;0.30;0.20;;;;;;;13.63;100.00;99048.50;5051629;28;20439;-53
2021/05/16 07:26:27;;;;;;;0.30;0.20;;;;;;;13.79;100.00;99049.28;5052439;28;20943;-54
2021/05/16 07:28:54;;;;;;;0.30;0.20;;;;;;;13.78;100.00;99044.91;5052547;28;20475;-53
2021/05/16 07:31:21;;;;;;;0.30;0.20;;;;;;;13.95;100.00;99041.19;5052365;28;20798;-54
2021/05/16 07:33:47;;;;;;;0.30;0.20;;;;;;;14.23;100.00;99043.81;5052530;28;20544;-54
2021/05/16 07:36:14;;;;;;;0.30;0.20;;;;;;;14.47;100.00;99038.75;5052321;28;20485;-54
2021/05/16 07:38:41;;;;;;;0.30;0.20;;;;;;;14.67;100.00;99042.84;5052138;28;20536;-53
2021/05/16 07:41:07;;;;;;;0.30;0.20;;;;;;;15.03;100.00;99046.69;5052065;28;20485;-54
2021/05/16 07:43:34;;;;;;;0.30;0.20;;;;;;;15.45;100.00;99042.06;5052068;28;20505;-54
2021/05/16 07:46:01;;;;;;;0.30;0.20;;;;;;;15.43;98.33;99038.66;5052202;28;20935;-54
2021/05/16 07:48:30;;;;;;;0.30;0.20;;;;;;;15.64;100.00;99043.44;5052281;28;20528;-54
2021/05/16 07:50:58;;;;;;;0.30;0.20;;;;;;;15.33;100.00;99035.72;5052226;28;20537;-54
2021/05/16 07:53:26;;;;;;;0.30;0.20;;;;;;;15.37;98.79;99045.28;5052400;28;20483;-53
2021/05/16 07:55:53;;;;;;;0.30;0.20;;;;;;;15.17;97.57;99054.66;5052577;28;20485;-53
2021/05/16 07:58:19;;;;;;;0.30;0.20;;;;;;;15.05;96.15;99047.44;5051778;28;20532;-54
2021/05/16 08:00:47;;;;;;;0.80;0.80;;;;;;;15.14;98.64;99043.31;5052257;28;20803;-55
2021/05/16 08:03:14;;;;;;;0.30;0.20;;;;;;;15.25;96.43;99040.78;5052437;28;20473;-55
2021/05/16 08:05:40;;;;;;;0.30;0.20;;;;;;;15.32;94.74;99050.09;5053192;28;20455;-55
2021/05/16 08:08:07;;;;;;;0.30;0.20;;;;;;;15.48;95.20;99050.75;5052599;28;20528;-55
2021/05/16 08:10:33;;;;;;;0.30;0.20;;;;;;;15.32;94.20;99048.25;5052091;28;20561;-55
2021/05/16 08:13:00;;;;;;;0.30;0.20;;;;;;;15.13;94.26;99044.28;5051427;28;20494;-55
2021/05/16 08:15:27;;;;;;;0.40;0.20;;;;;;;15.45;93.80;99037.56;5052160;28;20476;-54
2021/05/16 08:17:54;;;;;;;0.30;0.20;;;;;;;15.51;94.34;99047.88;5051813;28;20521;-55
2021/05/16 08:20:20;;;;;;;0.40;0.40;;;;;;;15.75;91.32;99055.19;5052865;28;20455;-56
2021/05/16 08:22:47;;;;;;;0.30;0.20;;;;;;;15.64;89.85;99053.28;5055936;28;20513;-55
2021/05/16 08:25:14;;;;;;;0.30;0.20;;;;;;;15.84;90.54;99047.38;5055681;28;20458;-55
2021/05/16 08:27:41;;;;;;;2.10;1.17;;;;;;;15.68;90.85;99052.97;5055961;28;20879;-55
2021/05/16 08:30:09;;;;;;;0.30;0.20;;;;;;;15.56;90.22;99045.72;5055721;28;21044;-55
2021/05/16 08:32:36;;;;;;;0.30;0.20;;;;;;;15.53;88.72;99045.09;5056244;28;20841;-55
2021/05/16 08:35:04;;;;;;;0.30;0.20;;;;;;;15.45;89.88;99040.25;5055959;28;20485;-55
2021/05/16 08:37:30;;;;;;;0.30;0.30;;;;;;;15.57;90.31;99047.44;5055451;28;20478;-55
2021/05/16 08:39:57;;;;;;;0.40;0.40;;;;;;;15.44;89.46;99046.56;5055890;28;20861;-55
2021/05/16 08:42:24;;;;;;;0.30;0.20;;;;;;;15.93;88.56;99043.22;5055483;28;20505;-55
2021/05/16 08:44:50;;;;;;;0.30;0.20;;;;;;;16.07;86.55;99042.22;5055812;28;20447;-55
2021/05/16 08:47:18;;;;;;;0.30;0.20;;;;;;;16.02;87.22;99044.34;5055623;28;20528;-56
2021/05/16 08:49:45;;;;;;;0.30;0.20;;;;;;;16.03;84.46;99043.41;5055606;28;20451;-56
2021/05/16 08:52:12;;;;;;;0.30;0.20;;;;;;;15.85;83.85;99046.41;5055575;28;20450;-55
2021/05/16 08:54:41;;;;;;;0.30;0.20;;;;;;;16.16;83.25;99042.41;5055243;28;20446;-55
2021/05/16 08:57:07;;;;;;;0.30;0.20;;;;;;;16.60;80.71;99041.03;5055305;28;21072;-55
2021/05/16 08:59:34;;;;;;;0.30;0.20;;;;;;;16.37;80.61;99033.81;5055442;28;20446;-55
2021/05/16 09:02:01;;;;;;;0.30;0.20;;;;;;;16.72;80.83;99033.91;5055564;28;20955;-55
2021/05/16 09:04:39;;;;;;;0.40;0.20;;;;;;;17.10;76.86;99042.66;5055400;28;20965;-55
2021/05/16 09:07:06;;;;;;;0.40;0.20;;;;;;;17.10;78.33;99025.69;5055519;28;20504;-55
2021/05/16 09:09:39;;;;;;;0.57;0.57;;;;;;;17.58;75.57;99031.84;5055745;28;20846;-55
2021/05/16 09:12:15;;;;;;;0.40;0.20;;;;;;;17.68;74.89;99027.50;5055094;28;20443;-55
2021/05/16 09:14:43;;;;;;;0.40;0.20;;;;;;;17.55;73.60;99044.66;5054595;28;20847;-55
2021/05/16 09:17:30;;;;;;;0.40;0.20;;;;;;;17.53;71.81;99042.06;5054941;28;20520;-55
2021/05/16 09:20:23;;;;;;;0.40;0.20;;;;;;;17.27;72.49;99035.16;5043559;28;20944;-55
2021/05/16 09:22:54;;;;;;;0.40;0.20;;;;;;;17.63;70.99;99035.00;5054795;28;20443;-55
2021/05/16 09:25:29;;;;;;;0.40;0.20;;;;;;;17.46;70.33;99036.31;5054729;28;20450;-55
2021/05/16 09:28:05;;;;;;;0.40;0.20;;;;;;;17.55;71.37;99029.41;5042206;28;20467;-55
2021/05/16 09:30:33;;;;;;;0.40;0.20;;;;;;;17.98;72.17;99032.28;5054816;28;20454;-55
2021/05/16 09:33:02;;;;;;;0.40;0.20;;;;;;;18.23;71.88;99033.88;5054464;28;20569;-55
2021/05/16 09:35:47;;;;;;;0.40;0.20;;;;;;;18.08;70.98;99021.63;5054147;28;20943;-55
2021/05/16 09:38:22;;;;;;;0.40;0.20;;;;;;;17.87;70.86;99017.97;5054634;28;20553;-55
2021/05/16 09:40:58;;;;;;;0.40;0.20;;;;;;;17.90;69.88;99020.41;5054721;28;20928;-55
2021/05/16 09:43:29;;;;;;;0.40;0.20;;;;;;;18.05;68.76;99025.44;5054545;28;20443;-55
2021/05/16 09:45:56;;;;;;;0.40;0.20;;;;;;;17.91;68.82;99017.59;5054228;28;20501;-55
2021/05/16 09:48:29;;;;;;;0.40;0.20;;;;;;;18.05;70.31;99017.34;5054759;28;20936;-55
2021/05/16 09:51:17;;;;;;;0.40;0.20;;;;;;;18.35;70.18;99023.94;5054366;28;20446;-55
2021/05/16 09:53:54;;;;;;;0.40;0.20;;;;;;;18.63;72.86;99025.25;5041788;28;20509;-55
2021/05/16 09:56:24;;;;;;;0.40;0.20;;;;;;;18.81;73.36;99022.94;5054468;28;20492;-55
2021/05/16 09:58:57;;;;;;;0.40;0.30;;;;;;;18.54;72.24;99018.78;5054554;28;20479;-56
2021/05/16 10:01:26;;;;;;;0.40;0.20;;;;;;;17.90;69.35;99025.78;5052922;28;20501;-56
2021/05/16 10:03:54;;;;;;;0.40;0.20;;;;;;;18.44;69.79;99020.53;5054086;28;20485;-55
2021/05/16 10:06:22;;;;;;;0.40;0.20;;;;;;;18.30;70.18;99018.94;5054182;28;20443;-56
2021/05/16 10:08:49;;;;;;;0.40;0.20;;;;;;;18.69;69.34;99013.16;5054114;28;20471;-55
2021/05/16 10:11:25;;;;;;;0.40;0.20;;;;;;;18.69;68.60;99003.25;5053836;28;20512;-55
2021/05/16 10:14:16;;;;;;;0.70;0.70;;;;;;;19.18;66.46;99013.44;5053857;28;20478;-55
2021/05/16 10:16:46;;;;;;;0.40;0.20;;;;;;;19.41;66.85;99016.03;5035739;28;20508;-55
2021/05/16 10:19:18;;;;;;;0.40;0.20;;;;;;;18.76;64.66;99014.34;5053842;28;20959;-55
2021/05/16 10:22:00;;;;;;;0.40;0.20;;;;;;;18.54;66.29;99007.16;5053734;28;20450;-55
2021/05/16 10:24:36;;;;;;;0.40;0.20;;;;;;;19.16;65.56;99001.94;5053674;28;20879;-55
2021/05/16 10:27:23;;;;;;;0.40;0.20;;;;;;;19.48;63.56;98992.97;5053620;28;20469;-56
2021/05/16 10:29:58;;;;;;;0.40;0.20;;;;;;;19.58;61.80;98991.22;5053637;28;20439;-55
2021/05/16 10:32:50;;;;;;;0.40;0.20;;;;;;;19.30;61.01;98981.91;5052221;28;20441;-55
2021/05/16 10:35:18;;;;;;;0.40;0.20;;;;;;;19.06;62.71;98982.19;5045628;28;20974;-55
2021/05/16 10:37:53;;;;;;;0.40;0.20;;;;;;;19.37;63.20;98980.41;5053398;28;20504;-55
2021/05/16 10:40:20;;;;;;;0.40;0.20;;;;;;;19.21;63.35;98972.81;5053376;28;20516;-55
2021/05/16 10:42:47;;;;;;;0.40;0.20;;;;;;;19.60;63.07;98964.13;5052276;28;20473;-56
2021/05/16 10:45:38;;;;;;;0.40;0.20;;;;;;;19.36;61.21;98959.00;5053515;28;20446;-55
2021/05/16 10:48:20;;;;;;;0.40;0.20;;;;;;;19.99;62.66;98959.75;5044624;28;20528;-55
2021/05/16 10:50:52;;;;;;;0.40;0.20;;;;;;;20.07;60.75;98943.75;5053323;28;20501;-56
2021/05/16 10:53:23;;;;;;;0.40;0.20;;;;;;;19.79;61.09;98953.44;5053034;28;20487;-55
2021/05/16 10:56:01;;;;;;;0.40;0.20;;;;;;;19.58;61.90;98952.63;5053339;28;20439;-55
2021/05/16 10:58:41;;;;;;;0.40;0.20;;;;;;;19.77;63.07;98945.50;5052883;28;20821;-55
2021/05/16 11:01:35;;;;;;;0.40;0.30;;;;;;;20.21;62.63;98940.69;5051896;28;20885;-55
2021/05/16 11:04:03;;;;;;;0.40;0.20;;;;;;;20.25;61.08;98927.75;5050363;28;20512;-55
2021/05/16 11:06:30;;;;;;;0.40;0.30;;;;;;;20.04;61.19;98917.91;5053036;28;20479;-55
2021/05/16 11:08:57;;;;;;;0.40;0.20;;;;;;;19.91;61.52;98925.41;5052808;28;20983;-55
2021/05/16 11:11:29;;;;;;;0.40;0.20;;;;;;;19.82;61.58;98921.66;5052856;28;20520;-55
2021/05/16 11:13:57;;;;;;;0.40;0.20;;;;;;;19.51;61.77;98922.63;5052601;28;20482;-55
2021/05/16 11:16:23;;;;;;;0.40;0.20;;;;;;;20.29;60.75;98921.09;5052639;28;20446;-55
2021/05/16 11:18:50;;;;;;;0.40;0.20;;;;;;;20.47;59.20;98905.09;5052396;28;20497;-56
2021/05/16 11:21:17;;;;;;;0.40;0.20;;;;;;;20.46;58.96;98909.66;5053158;28;20455;-55
2021/05/16 11:23:47;;;;;;;0.40;0.20;;;;;;;20.41;59.28;98910.06;5052810;28;20561;-55
2021/05/16 11:26:15;;;;;;;0.40;0.20;;;;;;;20.36;59.03;98904.19;5053116;28;20447;-55
2021/05/16 11:28:52;;;;;;;0.40;0.20;;;;;;;20.74;56.81;98905.25;5052166;28;20475;-55
2021/05/16 11:31:21;;;;;;;0.40;0.20;;;;;;;20.47;56.37;98899.72;5052570;28;20489;-55
2021/05/16 11:33:50;;;;;;;0.40;0.20;;;;;;;20.28;56.99;98904.03;5052593;28;20493;-56